Time;durP1;ratioP1;P1;durP2;ratioP2;P2;SDS_P1;SDS_P2;PMS_P1;PMS_P2;Temp;Humidity;BMP_temperature;BMP_pressure;BME280_temperature;BME280_humidity;BME280_pressure;Samples;Min_cycle;Max_cycle;Signal;HPM_P1;HPM_P2
2023/07/26 00:01:35;;;;;;;2.28;1.27;;;;;;;;;;5017214;28;92399;-79
2023/07/26 00:04:04;;;;;;;1.85;1.10;;;;;;;;;;5002555;28;93102;-79
2023/07/26 00:06:31;;;;;;;2.17;1.10;;;;;;;;;;5009597;28;94908;-79
2023/07/26 00:08:58;;;;;;;2.15;1.20;;;;;;;;;;5014684;28;93970;-80
2023/07/26 00:11:24;;;;;;;2.85;1.40;;;;;;;;;;5017803;28;92764;-79
2023/07/26 00:13:51;;;;;;;2.78;1.30;;;;;;;;;;5000102;28;93012;-80
2023/07/26 00:16:17;;;;;;;1.83;1.30;;;;;;;;;;5016300;28;93027;-79
2023/07/26 00:18:44;;;;;;;2.25;1.23;;;;;;;;;;5015057;28;92988;-79
2023/07/26 00:21:11;;;;;;;2.72;1.20;;;;;;;;;;5010145;28;93297;-79
2023/07/26 00:23:37;;;;;;;1.88;1.10;;;;;;;;;;5012577;28;92460;-79
2023/07/26 00:26:04;;;;;;;1.83;1.20;;;;;;;;;;4999680;28;92871;-79
2023/07/26 00:28:30;;;;;;;1.73;1.10;;;;;;;;;;4982608;28;93228;-79
2023/07/26 00:30:57;;;;;;;2.70;1.20;;;;;;;;;;5005882;28;95203;-79
2023/07/26 00:33:23;;;;;;;3.28;1.20;;;;;;;;;;5003950;28;92524;-79
2023/07/26 00:35:50;;;;;;;2.58;1.40;;;;;;;;;;5006516;28;93276;-79
2023/07/26 00:38:16;;;;;;;3.13;1.30;;;;;;;;;;4996460;28;93017;-79
2023/07/26 00:40:43;;;;;;;2.42;1.30;;;;;;;;;;5004851;28;93130;-79
2023/07/26 00:43:09;;;;;;;1.35;1.00;;;;;;;;;;5010455;28;93141;-80
2023/07/26 00:45:38;;;;;;;2.53;1.20;;;;;;;;;;5011938;28;92380;-80
2023/07/26 00:48:05;;;;;;;2.50;1.42;;;;;;;;;;5000785;28;92754;-79
2023/07/26 00:50:32;;;;;;;1.63;1.27;;;;;;;;;;5011276;28;93146;-79
2023/07/26 00:52:59;;;;;;;2.55;1.30;;;;;;;;;;5011433;28;92497;-79
2023/07/26 00:55:25;;;;;;;2.05;1.30;;;;;;;;;;5000686;28;95509;-79
2023/07/26 00:57:52;;;;;;;2.10;1.30;;;;;;;;;;5001801;28;92770;-79
2023/07/26 01:00:19;;;;;;;2.60;1.40;;;;;;;;;;5011340;28;94175;-79
2023/07/26 01:02:46;;;;;;;2.60;1.40;;;;;;;;;;5007471;28;92975;-79
2023/07/26 01:05:13;;;;;;;;;;;;;;;;;;5016620;28;92566;-79
2023/07/26 01:07:47;;;;;;;1.98;1.30;;;;;;;;;;5002456;28;93834;-80
2023/07/26 01:10:16;;;;;;;3.25;1.50;;;;;;;;;;5004039;28;95362;-80
2023/07/26 01:12:54;;;;;;;2.45;1.30;;;;;;;;;;5012353;28;91993;-79
2023/07/26 01:15:26;;;;;;;1.50;1.20;;;;;;;;;;5002623;28;94657;-80
2023/07/26 01:18:09;;;;;;;2.65;1.30;;;;;;;;;;4981393;28;93223;-79
2023/07/26 01:20:35;;;;;;;3.03;1.30;;;;;;;;;;5003287;28;95297;-79
2023/07/26 01:23:02;;;;;;;2.45;1.30;;;;;;;;;;5005447;28;93123;-79
2023/07/26 01:25:28;;;;;;;1.85;1.20;;;;;;;;;;4991227;28;92974;-80
2023/07/26 01:27:55;;;;;;;1.70;1.38;;;;;;;;;;5007610;28;95313;-80
2023/07/26 01:30:22;;;;;;;2.75;1.38;;;;;;;;;;5009734;28;94147;-80
2023/07/26 01:32:50;;;;;;;2.28;1.10;;;;;;;;;;5001263;28;92393;-79
2023/07/26 01:35:19;;;;;;;2.65;1.20;;;;;;;;;;5001680;28;95592;-80
2023/07/26 01:37:46;;;;;;;3.15;1.17;;;;;;;;;;4998594;28;92356;-79
2023/07/26 01:40:13;;;;;;;1.85;1.23;;;;;;;;;;5011515;28;92378;-80
2023/07/26 01:42:40;;;;;;;2.60;1.25;;;;;;;;;;5010634;28;93208;-80
2023/07/26 01:45:09;;;;;;;1.83;1.13;;;;;;;;;;5007334;28;95290;-80
2023/07/26 01:47:36;;;;;;;2.13;1.20;;;;;;;;;;5011216;28;95259;-79
2023/07/26 01:50:02;;;;;;;2.47;1.30;;;;;;;;;;5004325;28;94323;-79
2023/07/26 01:52:31;;;;;;;1.55;1.15;;;;;;;;;;5000680;28;92861;-80
2023/07/26 01:54:58;;;;;;;2.20;1.30;;;;;;;;;;5009216;28;95660;-80
2023/07/26 01:57:25;;;;;;;1.73;1.10;;;;;;;;;;5008998;28;92975;-80
2023/07/26 01:59:52;;;;;;;3.67;1.52;;;;;;;;;;5000260;28;92491;-80
2023/07/26 02:02:19;;;;;;;2.15;1.30;;;;;;;;;;4997969;28;95080;-80
2023/07/26 02:04:46;;;;;;;2.35;1.30;;;;;;;;;;4999220;28;92881;-80
2023/07/26 02:07:12;;;;;;;2.45;1.30;;;;;;;;;;5004351;28;93894;-80
2023/07/26 02:09:39;;;;;;;2.80;1.40;;;;;;;;;;5004312;28;97327;-80
2023/07/26 02:12:06;;;;;;;2.70;1.40;;;;;;;;;;5010322;28;92629;-80
2023/07/26 02:14:32;;;;;;;1.90;1.17;;;;;;;;;;4995891;28;93903;-80
2023/07/26 02:16:59;;;;;;;2.50;1.48;;;;;;;;;;5008733;28;93051;-80
2023/07/26 02:19:25;;;;;;;1.80;1.20;;;;;;;;;;5006583;28;93032;-80
2023/07/26 02:21:54;;;;;;;2.05;1.20;;;;;;;;;;4997044;28;95411;-80
2023/07/26 02:24:21;;;;;;;2.38;1.58;;;;;;;;;;5001904;28;92420;-80
2023/07/26 02:26:48;;;;;;;1.88;1.30;;;;;;;;;;5009251;28;95674;-80
2023/07/26 02:29:14;;;;;;;2.78;1.40;;;;;;;;;;5008852;28;95698;-80
2023/07/26 02:31:41;;;;;;;2.15;1.13;;;;;;;;;;5009663;28;92669;-80
2023/07/26 02:34:08;;;;;;;2.40;1.10;;;;;;;;;;4998895;28;95120;-80
2023/07/26 02:36:34;;;;;;;1.38;1.13;;;;;;;;;;5002451;28;93028;-80
2023/07/26 02:39:01;;;;;;;2.35;1.30;;;;;;;;;;4995545;28;92462;-80
2023/07/26 02:41:27;;;;;;;3.15;1.35;;;;;;;;;;5000244;28;92831;-80
2023/07/26 02:43:54;;;;;;;1.70;1.20;;;;;;;;;;5011729;28;93056;-80
2023/07/26 02:46:20;;;;;;;1.80;1.30;;;;;;;;;;4992189;28;92799;-80
2023/07/26 02:48:47;;;;;;;1.88;1.20;;;;;;;;;;5004246;28;93043;-80
2023/07/26 02:51:14;;;;;;;1.55;1.15;;;;;;;;;;5008344;28;92284;-80
2023/07/26 02:53:40;;;;;;;3.03;1.30;;;;;;;;;;5002418;28;92392;-80
2023/07/26 02:56:07;;;;;;;1.45;1.20;;;;;;;;;;4997889;28;93531;-80
2023/07/26 02:58:33;;;;;;;1.33;1.10;;;;;;;;;;4996254;28;94849;-79
2023/07/26 03:01:00;;;;;;;2.25;1.40;;;;;;;;;;4994888;28;96885;-80
2023/07/26 03:03:26;;;;;;;2.05;1.20;;;;;;;;;;5000810;28;93036;-80
2023/07/26 03:05:56;;;;;;;2.53;1.20;;;;;;;;;;5005373;28;92535;-79
2023/07/26 03:08:22;;;;;;;1.50;1.10;;;;;;;;;;5007252;28;95688;-80
2023/07/26 03:10:52;;;;;;;2.40;1.30;;;;;;;;;;4991770;28;92433;-79
2023/07/26 03:13:18;;;;;;;2.47;1.30;;;;;;;;;;5012470;28;92746;-79
2023/07/26 03:15:45;;;;;;;1.40;1.17;;;;;;;;;;5013041;28;93277;-80
2023/07/26 03:18:13;;;;;;;1.80;1.20;;;;;;;;;;5009589;28;92439;-80
2023/07/26 03:20:43;;;;;;;2.45;1.20;;;;;;;;;;5000196;28;94286;-80
2023/07/26 03:23:10;;;;;;;2.55;1.10;;;;;;;;;;4989472;28;95507;-80
2023/07/26 03:25:37;;;;;;;1.35;1.02;;;;;;;;;;5011731;28;92961;-80
2023/07/26 03:28:03;;;;;;;1.77;1.30;;;;;;;;;;5005209;28;95768;-80
2023/07/26 03:30:30;;;;;;;2.38;1.20;;;;;;;;;;5007402;28;92486;-80
2023/07/26 03:32:56;;;;;;;1.45;1.13;;;;;;;;;;5003081;28;93958;-80
2023/07/26 03:35:24;;;;;;;2.33;1.10;;;;;;;;;;4989883;28;93613;-80
2023/07/26 03:37:51;;;;;;;2.25;1.10;;;;;;;;;;4993559;28;92905;-80
2023/07/26 03:40:18;;;;;;;2.50;1.35;;;;;;;;;;5004259;28;93008;-79
2023/07/26 03:42:45;;;;;;;1.33;1.00;;;;;;;;;;4990951;28;93093;-80
2023/07/26 03:45:11;;;;;;;2.17;1.30;;;;;;;;;;5002874;28;92487;-80
2023/07/26 03:47:38;;;;;;;2.90;1.27;;;;;;;;;;5009399;28;96085;-80
2023/07/26 03:50:05;;;;;;;1.52;1.10;;;;;;;;;;5009976;28;92458;-80
2023/07/26 03:52:31;;;;;;;1.63;1.10;;;;;;;;;;4995106;28;92848;-80
2023/07/26 03:54:58;;;;;;;3.08;1.30;;;;;;;;;;5009112;28;93031;-80
2023/07/26 03:57:24;;;;;;;2.22;1.30;;;;;;;;;;4992625;28;92478;-80
2023/07/26 03:59:51;;;;;;;1.75;1.17;;;;;;;;;;5003233;28;95891;-80
2023/07/26 04:02:19;;;;;;;1.60;1.23;;;;;;;;;;5002813;28;94415;-80
2023/07/26 04:04:46;;;;;;;1.60;1.10;;;;;;;;;;5008365;28;92197;-80
2023/07/26 04:07:13;;;;;;;2.15;1.10;;;;;;;;;;5008632;28;92460;-80
2023/07/26 04:09:39;;;;;;;1.70;1.25;;;;;;;;;;4999569;28;93474;-80
2023/07/26 04:12:06;;;;;;;2.00;1.10;;;;;;;;;;4988060;28;94858;-80
2023/07/26 04:14:33;;;;;;;2.40;1.30;;;;;;;;;;5001975;28;95841;-80
2023/07/26 04:16:59;;;;;;;2.03;1.20;;;;;;;;;;5007057;28;93236;-80
2023/07/26 04:19:26;;;;;;;1.73;1.20;;;;;;;;;;5011347;28;93331;-80
2023/07/26 04:21:52;;;;;;;2.72;1.30;;;;;;;;;;4998217;28;93070;-80
2023/07/26 04:24:19;;;;;;;1.95;1.15;;;;;;;;;;5010373;28;92555;-80
2023/07/26 04:26:46;;;;;;;1.77;1.25;;;;;;;;;;5008851;28;92773;-79
2023/07/26 04:29:12;;;;;;;1.63;1.20;;;;;;;;;;5013162;28;91862;-79
2023/07/26 04:31:39;;;;;;;1.98;1.20;;;;;;;;;;5013498;28;92435;-80
2023/07/26 04:34:06;;;;;;;2.08;1.20;;;;;;;;;;4993814;28;95328;-79
2023/07/26 04:36:32;;;;;;;2.17;1.40;;;;;;;;;;5010145;28;94968;-79
2023/07/26 04:38:59;;;;;;;1.77;1.30;;;;;;;;;;4997846;28;95683;-80
2023/07/26 04:41:26;;;;;;;2.45;1.30;;;;;;;;;;5005178;28;93103;-80
2023/07/26 04:43:52;;;;;;;2.38;1.20;;;;;;;;;;5013524;28;92378;-80
2023/07/26 04:46:19;;;;;;;2.00;1.20;;;;;;;;;;5001712;28;92795;-80
2023/07/26 04:48:46;;;;;;;2.10;1.30;;;;;;;;;;5009459;28;93296;-80
2023/07/26 04:51:13;;;;;;;1.88;1.30;;;;;;;;;;5012335;28;92408;-80
2023/07/26 04:53:40;;;;;;;2.72;1.27;;;;;;;;;;4994529;28;91983;-80
2023/07/26 04:56:06;;;;;;;2.15;1.30;;;;;;;;;;5005818;28;92406;-80
2023/07/26 04:58:33;;;;;;;2.33;1.30;;;;;;;;;;5008096;28;92927;-80
2023/07/26 05:00:59;;;;;;;2.70;1.50;;;;;;;;;;4997476;28;94969;-81
2023/07/26 05:03:26;;;;;;;2.25;1.10;;;;;;;;;;5005264;28;92457;-80
2023/07/26 05:05:53;;;;;;;2.42;1.23;;;;;;;;;;5015339;28;92907;-80
2023/07/26 05:08:21;;;;;;;2.33;1.30;;;;;;;;;;5003410;28;93377;-79
2023/07/26 05:10:51;;;;;;;2.95;1.25;;;;;;;;;;5015951;28;92430;-81
2023/07/26 05:13:19;;;;;;;2.38;1.30;;;;;;;;;;5013990;28;92804;-80
2023/07/26 05:15:46;;;;;;;1.83;1.20;;;;;;;;;;5012599;28;92502;-80
2023/07/26 05:18:15;;;;;;;2.17;1.30;;;;;;;;;;5010517;28;95531;-80
2023/07/26 05:20:42;;;;;;;3.13;1.35;;;;;;;;;;5007072;28;93440;-80
2023/07/26 05:23:09;;;;;;;2.72;1.35;;;;;;;;;;5017044;28;92651;-80
2023/07/26 05:25:37;;;;;;;2.38;1.33;;;;;;;;;;5016539;28;94793;-80
2023/07/26 05:28:04;;;;;;;2.13;1.20;;;;;;;;;;5011741;28;93577;-80
2023/07/26 05:30:30;;;;;;;1.85;1.40;;;;;;;;;;5012597;28;92999;-80
2023/07/26 05:32:57;;;;;;;2.22;1.23;;;;;;;;;;5005272;28;97219;-80
2023/07/26 05:35:24;;;;;;;1.63;1.20;;;;;;;;;;4997846;28;93675;-80
2023/07/26 05:37:50;;;;;;;3.13;1.50;;;;;;;;;;4984098;28;92847;-80
2023/07/26 05:40:17;;;;;;;2.72;1.30;;;;;;;;;;5003247;28;93089;-80
2023/07/26 05:42:43;;;;;;;2.13;1.40;;;;;;;;;;5000847;28;91711;-80
2023/07/26 05:45:10;;;;;;;2.10;1.30;;;;;;;;;;5009870;28;92895;-80
2023/07/26 05:47:38;;;;;;;2.17;1.30;;;;;;;;;;5009180;28;95901;-80
2023/07/26 05:50:06;;;;;;;1.30;1.15;;;;;;;;;;4995639;28;95212;-80
2023/07/26 05:52:32;;;;;;;2.17;1.20;;;;;;;;;;5008088;28;95264;-80
2023/07/26 05:54:59;;;;;;;2.97;1.50;;;;;;;;;;5002564;28;93658;-80
2023/07/26 05:57:25;;;;;;;2.05;1.50;;;;;;;;;;5000794;28;92500;-80
2023/07/26 05:59:52;;;;;;;1.92;1.33;;;;;;;;;;5003028;28;96971;-80
2023/07/26 06:02:19;;;;;;;3.13;1.30;;;;;;;;;;5009696;28;92999;-80
2023/07/26 06:04:48;;;;;;;2.47;1.38;;;;;;;;;;4998513;28;92862;-80
2023/07/26 06:07:15;;;;;;;2.33;1.35;;;;;;;;;;5009620;28;91556;-80
2023/07/26 06:09:42;;;;;;;2.25;1.38;;;;;;;;;;4998465;28;92727;-84
2023/07/26 06:12:09;;;;;;;2.38;1.30;;;;;;;;;;5010125;28;93000;-84
2023/07/26 06:14:36;;;;;;;2.22;1.38;;;;;;;;;;5009043;28;94918;-84
2023/07/26 06:17:02;;;;;;;2.85;1.58;;;;;;;;;;5007546;28;92552;-84
2023/07/26 06:19:30;;;;;;;3.13;1.50;;;;;;;;;;4991761;28;96186;-84
2023/07/26 06:21:57;;;;;;;2.97;1.30;;;;;;;;;;4991038;28;92442;-83
2023/07/26 06:24:25;;;;;;;2.88;1.60;;;;;;;;;;5007816;28;92941;-84
2023/07/26 06:26:52;;;;;;;3.42;1.40;;;;;;;;;;5006966;28;94111;-84
2023/07/26 06:29:19;;;;;;;;;;;;;;;;;;5010607;28;92424;-83
2023/07/26 06:31:45;;;;;;;2.30;1.23;;;;;;;;;;5005013;28;103364;-83
2023/07/26 06:34:12;;;;;;;2.30;1.30;;;;;;;;;;4991468;28;93282;-82
2023/07/26 06:36:39;;;;;;;2.83;1.45;;;;;;;;;;5005310;28;92405;-83
2023/07/26 06:39:05;;;;;;;2.88;1.40;;;;;;;;;;5000503;28;95428;-83
2023/07/26 06:41:32;;;;;;;2.67;1.50;;;;;;;;;;5012387;28;92945;-83
2023/07/26 06:43:59;;;;;;;;;;;;;;;;;;5010476;28;92478;-83
2023/07/26 06:46:25;;;;;;;2.95;1.48;;;;;;;;;;5009654;28;96080;-84
2023/07/26 06:48:52;;;;;;;3.45;1.75;;;;;;;;;;5010857;28;92495;-84
2023/07/26 06:51:18;;;;;;;3.13;1.67;;;;;;;;;;5010621;28;93868;-84
2023/07/26 06:53:45;;;;;;;2.05;1.40;;;;;;;;;;5000491;28;93807;-83
2023/07/26 06:56:12;;;;;;;3.53;1.60;;;;;;;;;;5003002;28;91730;-83
2023/07/26 06:58:38;;;;;;;3.95;1.33;;;;;;;;;;5006016;28;92452;-83
2023/07/26 07:01:14;;;;;;;3.03;1.50;;;;;;;;;;5003344;28;93964;-83
2023/07/26 07:03:40;;;;;;;3.10;1.33;;;;;;;;;;5008544;28;95094;-83
2023/07/26 07:06:08;;;;;;;;;;;;;;;;;;4997959;28;93037;-82
2023/07/26 07:08:34;;;;;;;1.83;1.30;;;;;;;;;;5004767;28;96589;-82
2023/07/26 07:11:01;;;;;;;3.15;1.50;;;;;;;;;;5010918;28;93003;-82
2023/07/26 07:13:27;;;;;;;2.60;1.30;;;;;;;;;;5013216;28;93167;-82
2023/07/26 07:15:54;;;;;;;2.40;1.30;;;;;;;;;;5006815;28;92350;-82
2023/07/26 07:18:21;;;;;;;2.97;1.38;;;;;;;;;;5020738;28;92885;-83
2023/07/26 07:20:53;;;;;;;2.65;1.48;;;;;;;;;;5016204;28;91770;-82
2023/07/26 07:23:21;;;;;;;2.42;1.38;;;;;;;;;;5028270;28;92138;-84
2023/07/26 07:25:47;;;;;;;2.45;1.33;;;;;;;;;;5031520;28;92771;-81
2023/07/26 07:28:14;;;;;;;2.42;1.40;;;;;;;;;;5020184;28;94748;-84
2023/07/26 07:30:41;;;;;;;3.53;1.40;;;;;;;;;;5022282;28;94347;-83
2023/07/26 07:33:07;;;;;;;3.70;1.50;;;;;;;;;;5019282;28;92477;-83
2023/07/26 07:35:34;;;;;;;3.03;1.40;;;;;;;;;;5000929;28;92601;-83
2023/07/26 07:38:01;;;;;;;2.15;1.40;;;;;;;;;;5025782;27;92247;-84
2023/07/26 07:40:30;;;;;;;2.78;1.33;;;;;;;;;;5032112;27;92443;-83
2023/07/26 07:42:56;;;;;;;2.85;1.30;;;;;;;;;;5026564;28;92722;-84
2023/07/26 07:45:23;;;;;;;2.80;1.40;;;;;;;;;;5032543;28;91971;-83
2023/07/26 07:47:49;;;;;;;3.38;1.60;;;;;;;;;;5019616;28;92244;-83
2023/07/26 07:50:16;;;;;;;2.45;1.40;;;;;;;;;;5016214;28;93415;-84
2023/07/26 07:52:44;;;;;;;3.00;1.30;;;;;;;;;;5001721;28;96435;-83
2023/07/26 07:55:10;;;;;;;2.60;1.30;;;;;;;;;;4992981;28;92790;-84
2023/07/26 07:57:37;;;;;;;2.22;1.50;;;;;;;;;;4998253;28;93165;-84
2023/07/26 08:00:04;;;;;;;2.20;1.30;;;;;;;;;;5012130;28;95349;-84
2023/07/26 08:02:37;;;;;;;2.33;1.20;;;;;;;;;;5012178;28;92630;-84
2023/07/26 08:05:03;;;;;;;2.85;1.45;;;;;;;;;;5015603;28;92842;-83
2023/07/26 08:07:30;;;;;;;3.00;1.40;;;;;;;;;;5013338;28;95962;-84
2023/07/26 08:09:56;;;;;;;3.70;1.40;;;;;;;;;;5000460;28;92581;-84
2023/07/26 08:12:23;;;;;;;2.75;1.33;;;;;;;;;;5010408;28;94336;-84
2023/07/26 08:14:50;;;;;;;3.08;1.40;;;;;;;;;;5008518;28;92855;-83
2023/07/26 08:17:16;;;;;;;2.83;1.40;;;;;;;;;;4995074;28;94793;-84
2023/07/26 08:19:44;;;;;;;2.80;1.50;;;;;;;;;;5008506;28;93387;-84
2023/07/26 08:22:10;;;;;;;;;;;;;;;;;;5003340;28;92841;-84
2023/07/26 08:24:37;;;;;;;2.53;1.38;;;;;;;;;;5001676;28;96229;-84
2023/07/26 08:27:06;;;;;;;3.47;1.30;;;;;;;;;;4984116;28;92915;-84
2023/07/26 08:29:33;;;;;;;2.53;1.38;;;;;;;;;;5014323;28;93040;-84
2023/07/26 08:31:59;;;;;;;3.47;1.50;;;;;;;;;;5005973;28;93613;-83
2023/07/26 08:34:26;;;;;;;1.90;1.40;;;;;;;;;;4991456;28;92047;-83
2023/07/26 08:36:53;;;;;;;2.45;1.40;;;;;;;;;;4995434;28;92570;-83
2023/07/26 08:39:20;;;;;;;3.17;1.45;;;;;;;;;;5003597;28;92896;-83
2023/07/26 08:42:01;;;;;;;2.13;1.30;;;;;;;;;;5010639;28;94964;-84
2023/07/26 08:44:29;;;;;;;3.13;1.40;;;;;;;;;;5003200;28;95191;-84
2023/07/26 08:46:56;;;;;;;2.78;1.35;;;;;;;;;;5007790;28;93304;-84
2023/07/26 08:49:23;;;;;;;2.75;1.50;;;;;;;;;;5013399;28;92431;-84
2023/07/26 08:51:50;;;;;;;2.40;1.40;;;;;;;;;;5010514;28;92810;-83
2023/07/26 08:54:16;;;;;;;2.95;1.52;;;;;;;;;;4991359;28;92523;-84
2023/07/26 08:56:43;;;;;;;2.53;1.38;;;;;;;;;;4992413;28;92855;-84
2023/07/26 08:59:10;;;;;;;2.33;1.30;;;;;;;;;;5011573;28;93462;-84
2023/07/26 09:01:36;;;;;;;2.30;1.33;;;;;;;;;;5014126;28;92527;-83
2023/07/26 09:04:23;;;;;;;1.95;1.40;;;;;;;;;;5014498;28;92697;-83
2023/07/26 09:06:50;;;;;;;3.60;1.70;;;;;;;;;;5007932;28;96988;-83
2023/07/26 09:09:17;;;;;;;2.72;1.20;;;;;;;;;;5000434;28;92558;-83
2023/07/26 09:11:51;;;;;;;2.15;1.30;;;;;;;;;;5015607;28;92665;-84
2023/07/26 09:14:17;;;;;;;2.53;1.30;;;;;;;;;;4992477;28;93190;-84
2023/07/26 09:16:46;;;;;;;3.00;1.40;;;;;;;;;;4998660;28;92414;-83
2023/07/26 09:19:12;;;;;;;3.28;1.70;;;;;;;;;;5011897;28;92980;-84
2023/07/26 09:21:39;;;;;;;2.75;1.30;;;;;;;;;;5003628;28;92347;-84
2023/07/26 09:24:05;;;;;;;2.45;1.38;;;;;;;;;;5012937;28;92668;-84
2023/07/26 09:26:42;;;;;;;2.65;1.30;;;;;;;;;;5013799;28;93099;-84
2023/07/26 09:29:10;;;;;;;3.17;1.45;;;;;;;;;;5007000;28;92571;-84
2023/07/26 09:31:44;;;;;;;3.28;1.45;;;;;;;;;;5008001;28;95400;-84
2023/07/26 09:34:14;;;;;;;3.17;1.45;;;;;;;;;;5000605;28;93591;-84
2023/07/26 09:36:41;;;;;;;3.53;1.60;;;;;;;;;;4991630;28;95844;-84
2023/07/26 09:39:08;;;;;;;2.90;1.40;;;;;;;;;;5013641;27;92982;-84
2023/07/26 09:41:35;;;;;;;2.85;1.60;;;;;;;;;;5033298;28;92741;-84
2023/07/26 09:44:01;;;;;;;3.03;1.40;;;;;;;;;;5017373;28;92449;-84
2023/07/26 09:46:27;;;;;;;3.53;1.42;;;;;;;;;;5009523;28;93284;-83
2023/07/26 09:49:03;;;;;;;4.68;1.50;;;;;;;;;;5004264;28;91786;-84
2023/07/26 09:51:31;;;;;;;2.20;1.30;;;;;;;;;;4999211;28;92452;-83
2023/07/26 09:53:57;;;;;;;;;;;;;;;;;;4999222;28;94253;-84
2023/07/26 09:56:27;;;;;;;2.17;1.30;;;;;;;;;;5012021;28;99478;-83
2023/07/26 09:58:53;;;;;;;3.47;1.63;;;;;;;;;;5009096;28;93084;-83
2023/07/26 10:01:22;;;;;;;3.45;1.48;;;;;;;;;;4999616;28;92435;-82
2023/07/26 10:03:50;;;;;;;2.60;1.25;;;;;;;;;;4993674;28;92662;-84
2023/07/26 10:06:18;;;;;;;3.15;1.40;;;;;;;;;;5010277;28;94209;-83
2023/07/26 10:08:48;;;;;;;3.53;1.48;;;;;;;;;;5001272;28;92917;-84
2023/07/26 10:11:15;;;;;;;2.92;1.48;;;;;;;;;;5009155;28;93627;-83
2023/07/26 10:13:42;;;;;;;;;;;;;;;;;;5000408;28;92561;-83
2023/07/26 10:16:08;;;;;;;3.90;1.70;;;;;;;;;;5007776;28;94432;-83
2023/07/26 10:18:35;;;;;;;2.75;1.30;;;;;;;;;;5007783;28;93418;-83
2023/07/26 10:21:03;;;;;;;2.90;1.48;;;;;;;;;;5009535;28;95282;-84
2023/07/26 10:23:30;;;;;;;3.30;1.38;;;;;;;;;;4994811;28;95256;-84
2023/07/26 10:25:57;;;;;;;2.70;1.48;;;;;;;;;;5010044;28;93240;-83
2023/07/26 10:28:24;;;;;;;;;;;;;;;;;;5007910;28;92660;-84
2023/07/26 10:30:52;;;;;;;3.33;1.38;;;;;;;;;;4991680;28;110268;-84
2023/07/26 10:33:18;;;;;;;5.78;1.65;;;;;;;;;;4997749;28;93139;-84
2023/07/26 10:35:45;;;;;;;3.28;1.52;;;;;;;;;;4997752;28;92482;-84
2023/07/26 10:38:15;;;;;;;2.45;1.27;;;;;;;;;;5000535;28;92696;-84
2023/07/26 10:40:43;;;;;;;4.30;1.70;;;;;;;;;;4986371;28;93062;-83
2023/07/26 10:43:36;;;;;;;4.88;1.77;;;;;;;;;;5012429;28;93806;-83
2023/07/26 10:46:07;;;;;;;2.78;1.40;;;;;;;;;;5000131;28;96769;-84
2023/07/26 10:48:38;;;;;;;3.50;1.60;;;;;;;;;;5012070;28;92430;-83
2023/07/26 10:51:24;;;;;;;3.40;1.70;;;;;;;;;;5011592;28;92779;-83
2023/07/26 10:53:53;;;;;;;2.92;1.40;;;;;;;;;;5001299;28;95430;-83
2023/07/26 10:56:30;;;;;;;4.30;1.80;;;;;;;;;;5006740;28;92837;-83
2023/07/26 10:59:03;;;;;;;4.70;1.60;;;;;;;;;;5006036;28;92549;-84
2023/07/26 11:01:32;;;;;;;2.97;1.50;;;;;;;;;;5011898;28;92818;-84
2023/07/26 11:03:59;;;;;;;4.10;1.60;;;;;;;;;;5014079;28;91877;-83
2023/07/26 11:06:45;;;;;;;4.90;1.90;;;;;;;;;;4997895;28;95027;-83
2023/07/26 11:09:30;;;;;;;3.83;1.48;;;;;;;;;;5002138;28;92888;-83
2023/07/26 11:11:59;;;;;;;3.90;1.70;;;;;;;;;;5003203;28;94781;-83
2023/07/26 11:14:28;;;;;;;3.75;1.63;;;;;;;;;;4997434;28;93207;-83
2023/07/26 11:16:55;;;;;;;3.28;1.55;;;;;;;;;;5007751;28;92396;-83
2023/07/26 11:19:24;;;;;;;3.67;1.60;;;;;;;;;;5006863;28;93389;-83
2023/07/26 11:21:51;;;;;;;3.63;1.65;;;;;;;;;;5011452;28;93274;-83
2023/07/26 11:24:26;;;;;;;3.47;1.60;;;;;;;;;;5010355;28;92536;-84
2023/07/26 11:26:52;;;;;;;4.07;1.63;;;;;;;;;;5010438;28;92689;-84
2023/07/26 11:29:20;;;;;;;3.42;1.65;;;;;;;;;;5014786;28;91699;-84
2023/07/26 11:31:48;;;;;;;3.63;1.60;;;;;;;;;;5014297;28;92665;-84
2023/07/26 11:34:15;;;;;;;3.47;1.50;;;;;;;;;;4999042;28;93122;-83
2023/07/26 11:36:42;;;;;;;4.65;1.80;;;;;;;;;;5007961;28;94774;-84
2023/07/26 11:39:18;;;;;;;4.22;1.60;;;;;;;;;;5004615;28;95441;-84
2023/07/26 11:41:45;;;;;;;4.55;1.80;;;;;;;;;;5001715;28;92498;-84
2023/07/26 11:44:13;;;;;;;4.18;1.70;;;;;;;;;;5014769;28;92521;-82
2023/07/26 11:46:41;;;;;;;3.30;1.48;;;;;;;;;;5009778;28;94005;-82
2023/07/26 11:49:09;;;;;;;4.57;1.50;;;;;;;;;;5025704;28;92494;-82
2023/07/26 11:51:36;;;;;;;3.20;1.50;;;;;;;;;;5018179;28;92969;-83
2023/07/26 11:54:06;;;;;;;4.15;1.80;;;;;;;;;;5006214;28;92196;-83
2023/07/26 11:56:33;;;;;;;3.05;1.40;;;;;;;;;;4998524;28;92467;-84
2023/07/26 11:59:01;;;;;;;4.30;1.83;;;;;;;;;;5013882;28;93510;-84
2023/07/26 12:01:27;;;;;;;4.65;1.95;;;;;;;;;;5012869;28;95407;-83
2023/07/26 12:03:54;;;;;;;3.28;1.48;;;;;;;;;;5023762;28;92362;-83
2023/07/26 12:06:27;;;;;;;4.22;1.90;;;;;;;;;;5014564;28;92929;-82
2023/07/26 12:08:59;;;;;;;3.83;1.75;;;;;;;;;;5008984;28;93347;-83
2023/07/26 12:11:26;;;;;;;5.00;1.80;;;;;;;;;;5012107;28;93181;-83
2023/07/26 12:13:55;;;;;;;3.30;1.50;;;;;;;;;;5014141;28;93414;-83
2023/07/26 12:16:28;;;;;;;5.25;1.70;;;;;;;;;;5011031;28;92428;-83
2023/07/26 12:18:58;;;;;;;4.30;1.70;;;;;;;;;;4992573;28;93338;-83
2023/07/26 12:21:25;;;;;;;3.75;1.80;;;;;;;;;;4999709;28;93405;-83
2023/07/26 12:24:04;;;;;;;4.15;1.80;;;;;;;;;;5008465;28;93012;-83
2023/07/26 12:26:33;;;;;;;4.07;1.70;;;;;;;;;;4997806;28;95096;-84
2023/07/26 12:29:03;;;;;;;3.67;1.60;;;;;;;;;;5015125;28;93236;-83
2023/07/26 12:31:31;;;;;;;4.38;1.65;;;;;;;;;;5001208;28;92382;-84
2023/07/26 12:34:03;;;;;;;4.03;1.70;;;;;;;;;;4999644;28;94671;-84
2023/07/26 12:36:46;;;;;;;3.78;1.50;;;;;;;;;;5003973;28;92459;-84
2023/07/26 12:39:16;;;;;;;4.15;1.80;;;;;;;;;;4996847;28;94806;-83
2023/07/26 12:41:44;;;;;;;3.63;1.65;;;;;;;;;;4997677;28;92915;-84
2023/07/26 12:44:13;;;;;;;4.45;1.67;;;;;;;;;;5012470;28;91689;-84
2023/07/26 12:46:41;;;;;;;4.22;1.73;;;;;;;;;;5010254;28;94916;-84
2023/07/26 12:49:27;;;;;;;3.65;1.70;;;;;;;;;;5012397;28;93715;-84
2023/07/26 12:51:54;;;;;;;4.30;1.60;;;;;;;;;;4998658;28;95311;-84
2023/07/26 12:54:21;;;;;;;2.97;1.50;;;;;;;;;;5004888;28;95020;-84
2023/07/26 12:56:51;;;;;;;3.95;1.60;;;;;;;;;;5000251;28;92487;-84
2023/07/26 12:59:17;;;;;;;4.15;1.95;;;;;;;;;;5006919;28;92716;-84
2023/07/26 13:01:44;;;;;;;3.90;1.83;;;;;;;;;;5011958;28;94269;-83
2023/07/26 13:04:11;;;;;;;4.78;1.80;;;;;;;;;;4999026;28;92738;-83
2023/07/26 13:06:37;;;;;;;4.13;1.80;;;;;;;;;;5008001;28;92799;-84
2023/07/26 13:09:05;;;;;;;4.40;1.70;;;;;;;;;;5005428;28;92511;-83
2023/07/26 13:11:32;;;;;;;5.43;2.00;;;;;;;;;;5020430;28;92486;-83
2023/07/26 13:13:59;;;;;;;4.05;1.55;;;;;;;;;;5022574;28;92824;-84
2023/07/26 13:16:27;;;;;;;3.35;1.70;;;;;;;;;;5018544;28;95401;-83
2023/07/26 13:18:59;;;;;;;3.75;1.67;;;;;;;;;;4992043;28;95156;-83
2023/07/26 13:21:25;;;;;;;4.28;1.92;;;;;;;;;;4996485;28;93317;-84
2023/07/26 13:23:52;;;;;;;4.63;1.90;;;;;;;;;;5011440;28;92350;-84
2023/07/26 13:26:18;;;;;;;3.80;1.63;;;;;;;;;;5009936;28;92753;-84
2023/07/26 13:28:45;;;;;;;4.22;1.75;;;;;;;;;;5006737;28;92927;-83
2023/07/26 13:31:11;;;;;;;3.60;1.70;;;;;;;;;;5005130;28;92353;-83
2023/07/26 13:33:38;;;;;;;3.53;1.77;;;;;;;;;;5001241;28;92775;-84
2023/07/26 13:36:22;;;;;;;3.58;1.55;;;;;;;;;;5004332;28;92419;-85
2023/07/26 13:38:49;;;;;;;;;;;;;;;;;;5000895;28;92500;-84
2023/07/26 13:41:16;;;;;;;4.32;1.50;;;;;;;;;;4999657;28;119038;-84
2023/07/26 13:43:42;;;;;;;3.72;2.00;;;;;;;;;;5010491;28;92623;-84
2023/07/26 13:46:09;;;;;;;3.28;1.60;;;;;;;;;;5003654;28;92613;-84
2023/07/26 13:48:56;;;;;;;3.92;1.70;;;;;;;;;;5006803;28;93475;-84
2023/07/26 13:51:22;;;;;;;4.53;1.83;;;;;;;;;;5005616;28;92377;-84
2023/07/26 13:53:49;;;;;;;3.38;1.67;;;;;;;;;;5005563;28;94149;-84
2023/07/26 13:56:15;;;;;;;5.28;2.00;;;;;;;;;;5015508;28;92491;-84
2023/07/26 13:58:42;;;;;;;3.55;1.70;;;;;;;;;;5010013;28;92090;-84
2023/07/26 14:01:10;;;;;;;4.18;1.80;;;;;;;;;;5005943;28;93228;-84
2023/07/26 14:03:37;;;;;;;4.30;1.90;;;;;;;;;;5004125;28;93038;-84
2023/07/26 14:06:04;;;;;;;3.83;1.60;;;;;;;;;;5010203;28;95053;-85
2023/07/26 14:08:31;;;;;;;3.85;1.60;;;;;;;;;;4987009;28;93597;-84
2023/07/26 14:10:57;;;;;;;4.35;1.77;;;;;;;;;;5004511;28;92444;-84
2023/07/26 14:13:24;;;;;;;3.00;1.40;;;;;;;;;;5011071;28;93409;-85
2023/07/26 14:15:51;;;;;;;4.53;1.77;;;;;;;;;;4999238;28;92967;-84
2023/07/26 14:18:20;;;;;;;3.22;1.60;;;;;;;;;;4999082;28;92501;-84
2023/07/26 14:20:48;;;;;;;3.13;1.67;;;;;;;;;;5013131;28;92849;-84
2023/07/26 14:23:15;;;;;;;5.05;1.83;;;;;;;;;;4996154;28;91731;-84
2023/07/26 14:25:41;;;;;;;3.88;1.85;;;;;;;;;;5014834;28;93383;-84
2023/07/26 14:28:08;;;;;;;4.28;1.75;;;;;;;;;;5019252;28;92957;-84
2023/07/26 14:30:34;;;;;;;4.93;1.60;;;;;;;;;;5006208;28;95121;-85
2023/07/26 14:33:01;;;;;;;3.78;1.65;;;;;;;;;;5002594;28;94069;-84
2023/07/26 14:35:28;;;;;;;3.53;1.60;;;;;;;;;;4996623;28;93577;-84
2023/07/26 14:37:54;;;;;;;4.47;1.70;;;;;;;;;;5002509;28;92535;-84
2023/07/26 14:40:21;;;;;;;4.05;1.90;;;;;;;;;;5008853;28;92813;-84
2023/07/26 14:42:47;;;;;;;4.07;1.90;;;;;;;;;;5013580;28;93312;-84
2023/07/26 14:45:14;;;;;;;3.45;1.77;;;;;;;;;;5004936;28;95670;-84
2023/07/26 14:47:40;;;;;;;3.42;1.60;;;;;;;;;;5010888;28;92959;-84
2023/07/26 14:50:07;;;;;;;4.07;1.60;;;;;;;;;;5011083;28;92928;-85